Terminal Aerodrome Forecast
Issued by NWS Charleston, WV

Current Version | Previous Version | Text Only | Print | Product List | Glossary Off
Versions: 1 2 3 4 5 6 7 8 9 10 11 12 13 14 15 16 17 18 19 20 21 22 23 24

000
FTUS41 KRLX 142341
TAFCRW
TAF
KCRW 142341Z 1500/1524 31003KT 1SM -RA BR OVC004
     FM150100 32002KT 2SM -DZ BR OVC005
     FM150500 33002KT 1/2SM -DZ FG OVC002
     FM151300 34002KT 1SM BR OVC004
     FM151500 36003KT 4SM BR OVC010
     FM151700 02003KT P6SM BKN020=

USA.gov is the U.S. government's official web portal to all federal, state and local government web resources and services.